Погода Селецкоена неделю

Смоленская область, Россия

25 - 31 мая
  • 25мая
    Сегодня
    +8°
    +24°
    Ясно и безоблачно
    ВремяПогодаТемператураВлажностьДавлениеВетер, м/сВероятность осадков
    00:00Ясно и безоблачно+10°C56 %752 мм2.4 м/с2 %
    03:00Ясно и безоблачно+7°C65 %752 мм2.1 м/с2 %
    06:00Ясно и безоблачно+9°C65 %752 мм2.5 м/с2 %
    09:00Ясно и безоблачно+17°C49 %752 мм1.7 м/с2 %
    12:00Ясно и безоблачно+21°C36 %752 мм2.0 м/с2 %
    15:00Ясно и безоблачно+23°C33 %751 мм2.6 м/с2 %
    18:00Ясно и безоблачно+24°C34 %750 мм2.1 м/с2 %
    21:00Ясно и безоблачно+17°C61 %749 мм2.5 м/с2 %
  • 26мая
    Воскресенье
    +12°
    +26°
    Практически безоблачно
    ВремяПогодаТемператураВлажностьДавлениеВетер, м/сВероятность осадков
    00:00Ясно и безоблачно+11°C73 %749 мм2.4 м/с2 %
    03:00Ясно и безоблачно+9°C83 %749 мм2.1 м/с2 %
    06:00Ясно и безоблачно+11°C79 %749 мм2.2 м/с2 %
    09:00Ясно и безоблачно+20°C55 %749 мм1.2 м/с2 %
    12:00Ясно и безоблачно+24°C38 %749 мм1.8 м/с2 %
    15:00Практически безоблачно+25°C34 %748 мм1.9 м/с3 %
    18:00Практически безоблачно+25°C36 %748 мм2.2 м/с11 %
    21:00Ясно и безоблачно+20°C60 %748 мм2.4 м/с3 %
  • 27мая
    Понедельник
    +10°
    +25°
    Ясно и безоблачно
    ВремяПогодаТемператураВлажностьДавлениеВетер, м/сВероятность осадков
    00:00Ясно и безоблачно+15°C76 %748 мм2.4 м/с2 %
    03:00Ясно и безоблачно+13°C92 %749 мм2.3 м/с2 %
    06:00Ясно и безоблачно+14°C87 %749 мм2.9 м/с2 %
    09:00Ясно и безоблачно+20°C58 %750 мм2.8 м/с2 %
    12:00Практически безоблачно+23°C50 %750 мм3.3 м/с23 %
    15:00Ясно и безоблачно+25°C42 %749 мм2.4 м/с29 %
    18:00Ясно и безоблачно+24°C39 %748 мм2.3 м/с25 %
    21:00Ясно и безоблачно+19°C48 %748 мм2.8 м/с5 %
  • 28мая
    Вторник
    +10°
    +25°
    Облачно с прояснениями
    ВремяПогодаТемператураВлажностьДавлениеВетер, м/сВероятность осадков
    00:00Ясно и безоблачно+14°C68 %748 мм2.1 м/с2 %
    03:00Ясно и безоблачно+12°C78 %748 мм2.2 м/с2 %
    06:00Ясно и безоблачно+13°C78 %748 мм2.1 м/с2 %
    09:00Ясно и безоблачно+21°C57 %748 мм1.3 м/с2 %
    12:00Практически безоблачно+24°C41 %748 мм2.1 м/с2 %
    15:00Облачно с прояснениями+25°C37 %747 мм1.9 м/с15 %
    18:00Практически безоблачно+25°C36 %746 мм2.1 м/с17 %
    21:00Практически безоблачно+21°C47 %745 мм2.5 м/с15 %
  • 29мая
    Среда
    +10°
    +25°
    Практически безоблачно
    ВремяПогодаТемператураВлажностьДавлениеВетер, м/сВероятность осадков
    00:00Ясно и безоблачно+16°C62 %745 мм2.5 м/с2 %
    03:00Небольшая облачность+11°C80 %744 мм2.2 м/с2 %
    06:00Ясно и безоблачно+13°C79 %744 мм1.4 м/с3 %
    09:00Ясно и безоблачно+22°C52 %744 мм2.0 м/с3 %
    12:00Практически безоблачно+24°C39 %744 мм2.6 м/с14 %
    15:00Практически безоблачно+24°C38 %743 мм2.2 м/с14 %
    18:00Небольшая облачность+24°C41 %742 мм1.6 м/с27 %
    21:00Практически безоблачно+19°C71 %742 мм1.7 м/с10 %
Мы используем cookies
Соглашаюсь